createdAt,value
2022-11-29T00:00:53.562Z,100283.94
2022-11-29T00:03:42.300Z,100278.56
2022-11-29T00:06:32.539Z,100282.28
2022-11-29T00:09:21.405Z,100284.72
2022-11-29T00:12:13.872Z,100286.16
2022-11-29T00:15:03.878Z,100275.47
2022-11-29T00:17:52.482Z,100277.38
2022-11-29T00:20:41.540Z,100277.72
2022-11-29T00:23:30.163Z,100271.59
2022-11-29T00:26:19.044Z,100272.84
2022-11-29T00:29:07.687Z,100277.38
2022-11-29T00:31:57.720Z,100273.41
2022-11-29T00:34:46.484Z,100280.63
2022-11-29T00:37:35.201Z,100272.81
2022-11-29T00:40:23.879Z,100282.69
2022-11-29T00:43:12.518Z,100276.72
2022-11-29T00:46:01.254Z,100275.28
2022-11-29T00:48:51.239Z,100279.78
2022-11-29T00:51:39.931Z,100276.50
2022-11-29T00:54:28.576Z,100268.31
2022-11-29T00:57:17.193Z,100273.22
2022-11-29T01:00:07.067Z,100274.00
2022-11-29T01:02:55.689Z,100272.38
2022-11-29T01:05:45.870Z,100268.91
2022-11-29T01:08:34.618Z,100274.22
2022-11-29T01:11:25.392Z,100276.91
2022-11-29T01:14:14.426Z,100270.13
2022-11-29T01:17:03.151Z,100279.16
2022-11-29T01:19:51.751Z,100281.81
2022-11-29T01:22:41.828Z,100287.97
2022-11-29T01:25:32.038Z,100277.69
2022-11-29T01:28:20.792Z,100283.47
2022-11-29T01:31:10.167Z,100287.97
2022-11-29T01:34:00.537Z,100285.31
2022-11-29T01:36:49.215Z,100278.53
2022-11-29T01:39:39.493Z,100277.91
2022-11-29T01:42:28.259Z,100279.56
2022-11-29T01:45:23.572Z,100285.53
2022-11-29T01:48:12.754Z,100275.25
2022-11-29T01:51:02.499Z,100276.66
2022-11-29T01:53:51.248Z,100283.88
2022-11-29T01:56:41.746Z,100283.88
2022-11-29T01:59:31.343Z,100279.56
2022-11-29T02:02:26.348Z,100282.59
2022-11-29T02:05:16.641Z,100279.53
2022-11-29T02:08:05.812Z,100284.66
2022-11-29T02:11:13.465Z,100292.69
2022-11-29T02:14:13.892Z,100297.63
2022-11-29T02:17:08.533Z,100294.28
2022-11-29T02:20:37.137Z,100290.19
2022-11-29T02:23:42.544Z,100295.50
2022-11-29T02:26:59.407Z,100291.63
2022-11-29T02:30:16.508Z,100304.75
2022-11-29T02:33:22.522Z,100302.69
2022-11-29T02:36:32.796Z,100303.13
2022-11-29T02:39:54.040Z,100309.25
2022-11-29T02:43:08.558Z,100305.16
2022-11-29T02:46:14.294Z,100309.25
2022-11-29T02:49:09.807Z,100308.44
2022-11-29T02:52:01.244Z,100309.47
2022-11-29T02:54:52.696Z,100311.31
2022-11-29T02:57:45.151Z,100317.06
2022-11-29T03:00:35.063Z,100314.16
2022-11-29T03:03:26.979Z,100314.16
2022-11-29T03:06:23.994Z,100317.47
2022-11-29T03:09:19.968Z,100326.47
2022-11-29T03:12:18.187Z,100316.19
2022-11-29T03:15:15.507Z,100323.19
2022-11-29T03:18:15.494Z,100323.19
2022-11-29T03:21:12.067Z,100327.72
2022-11-29T03:24:06.633Z,100331.41
2022-11-29T03:27:01.464Z,100335.09
2022-11-29T03:29:52.873Z,100336.34
2022-11-29T03:32:49.319Z,100331.03
2022-11-29T03:35:41.356Z,100340.44
2022-11-29T03:38:32.451Z,100344.56
2022-11-29T03:41:27.460Z,100338.78
2022-11-29T03:44:19.697Z,100337.56
2022-11-29T03:47:11.111Z,100336.75
2022-11-29T03:50:03.297Z,100340.44
2022-11-29T03:52:55.485Z,100342.50
2022-11-29T03:55:53.029Z,100334.47
2022-11-29T03:58:50.733Z,100339.19
2022-11-29T04:02:04.977Z,100335.50
2022-11-29T04:05:37.352Z,100343.28
2022-11-29T04:08:59.343Z,100337.97
2022-11-29T04:12:19.881Z,100336.53
2022-11-29T04:15:38.777Z,100342.84
2022-11-29T04:19:00.885Z,100343.28
2022-11-29T04:22:07.382Z,100341.22
2022-11-29T04:25:32.079Z,100348.19
2022-11-29T04:29:04.505Z,100350.66
2022-11-29T04:32:09.768Z,100351.88
2022-11-29T04:35:10.694Z,100360.53
2022-11-29T04:38:27.010Z,100355.25
2022-11-29T04:41:27.011Z,100358.50
2022-11-29T04:44:30.831Z,100363.19
2022-11-29T04:47:43.028Z,100361.38
2022-11-29T04:50:43.758Z,100359.25
2022-11-29T04:53:41.134Z,100367.50
2022-11-29T04:56:36.290Z,100369.97
2022-11-29T04:59:28.371Z,100370.75
2022-11-29T05:02:35.076Z,100370.94
2022-11-29T05:05:31.534Z,100366.63
2022-11-29T05:08:29.375Z,100377.28
2022-11-29T05:11:26.716Z,100377.66
2022-11-29T05:14:21.935Z,100369.28
2022-11-29T05:17:27.064Z,100379.81
2022-11-29T05:20:24.822Z,100380.19
2022-11-29T05:23:24.056Z,100384.53
2022-11-29T05:26:17.621Z,100386.19
2022-11-29T05:29:10.495Z,100389.03
2022-11-29T05:32:15.728Z,100389.97
2022-11-29T05:35:34.298Z,100392.47
2022-11-29T05:38:35.608Z,100389.97
2022-11-29T05:41:43.153Z,100388.47
2022-11-29T05:44:34.027Z,100393.56
2022-11-29T05:47:31.205Z,100388.47
2022-11-29T05:50:25.083Z,100397.06
2022-11-29T05:53:20.820Z,100395.03
2022-11-29T05:56:16.848Z,100392.94
2022-11-29T05:59:10.314Z,100394.19
2022-11-29T06:02:06.298Z,100398.50
2022-11-29T06:05:06.628Z,100402.41
2022-11-29T06:07:58.200Z,100406.50
2022-11-29T06:10:59.160Z,100404.47
2022-11-29T06:13:55.708Z,100415.75
2022-11-29T06:16:57.948Z,100413.56
2022-11-29T06:20:00.932Z,100415.16
2022-11-29T06:23:04.008Z,100424.78
2022-11-29T06:26:04.553Z,100420.84
2022-11-29T06:29:02.577Z,100422.88
2022-11-29T06:31:55.049Z,100426.56
2022-11-29T06:34:48.334Z,100438.13
2022-11-29T06:37:40.635Z,100436.91
2022-11-29T06:40:29.645Z,100443.00
2022-11-29T06:43:20.393Z,100445.28
2022-11-29T06:46:14.659Z,100439.53
2022-11-29T06:49:09.203Z,100439.72
2022-11-29T06:52:06.853Z,100444.13
2022-11-29T06:55:03.430Z,100448.78
2022-11-29T06:58:00.544Z,100438.50
2022-11-29T07:00:53.657Z,100449.53
2022-11-29T07:03:57.206Z,100450.44
2022-11-29T07:06:46.246Z,100450.44
2022-11-29T07:09:36.423Z,100458.25
2022-11-29T07:12:25.756Z,100460.88
2022-11-29T07:15:16.661Z,100457.19
2022-11-29T07:18:16.143Z,100455.75
2022-11-29T07:21:12.510Z,100461.09
2022-11-29T07:24:07.473Z,100477.09
2022-11-29T07:27:04.203Z,100470.34
2022-11-29T07:30:08.584Z,100478.75
2022-11-29T07:33:04.974Z,100473.81
2022-11-29T07:36:00.669Z,100476.47
2022-11-29T07:38:57.822Z,100479.16
2022-11-29T07:41:49.944Z,100481.41
2022-11-29T07:44:41.338Z,100493.09
2022-11-29T07:47:35.299Z,100489.81
2022-11-29T07:50:24.474Z,100500.09
2022-11-29T07:53:17.575Z,100498.63
2022-11-29T07:56:06.648Z,100500.94
2022-11-29T07:58:55.365Z,100505.03
2022-11-29T08:01:44.108Z,100508.94
2022-11-29T08:04:32.823Z,100508.72
2022-11-29T08:07:21.538Z,100503.78
2022-11-29T08:10:13.867Z,100512.81
2022-11-29T08:13:02.518Z,100507.47
2022-11-29T08:15:51.182Z,100503.78
2022-11-29T08:18:39.820Z,100516.09
2022-11-29T08:21:28.508Z,100514.44
2022-11-29T08:24:17.087Z,100511.38
2022-11-29T08:27:07.199Z,100511.16
2022-11-29T08:29:55.848Z,100515.84
2022-11-29T08:32:49.906Z,100511.16
2022-11-29T08:35:42.109Z,100525.13
2022-11-29T08:38:30.706Z,100512.81
2022-11-29T08:41:19.526Z,100511.53
2022-11-29T08:44:10.117Z,100519.16
2022-11-29T08:47:16.213Z,100519.34
2022-11-29T08:50:06.572Z,100517.50
2022-11-29T08:53:12.754Z,100522.38
2022-11-29T08:56:02.357Z,100522.22
2022-11-29T08:58:57.119Z,100525.50
2022-11-29T09:01:47.260Z,100526.53
2022-11-29T09:04:35.948Z,100532.50
2022-11-29T09:07:24.675Z,100533.69
2022-11-29T09:10:13.535Z,100534.53
2022-11-29T09:13:02.144Z,100542.88
2022-11-29T09:15:50.837Z,100537.94
2022-11-29T09:18:43.169Z,100544.28
2022-11-29T09:21:36.878Z,100541.06
2022-11-29T09:24:25.511Z,100545.19
2022-11-29T09:27:14.209Z,100547.41
2022-11-29T09:30:02.854Z,100546.84
2022-11-29T09:32:51.516Z,100542.72
2022-11-29T09:35:41.782Z,100541.91
2022-11-29T09:38:30.958Z,100539.47
2022-11-29T09:41:34.203Z,100545.19
2022-11-29T09:44:31.064Z,100550.25
2022-11-29T09:47:33.153Z,100553.75
2022-11-29T09:50:26.862Z,100552.94
2022-11-29T09:53:27.303Z,100557.44
2022-11-29T09:56:21.329Z,100558.25
2022-11-29T09:59:13.202Z,100556.03
2022-11-29T10:02:05.497Z,100549.25
2022-11-29T10:04:56.653Z,100552.56
2022-11-29T10:07:48.068Z,100560.28
2022-11-29T10:10:50.959Z,100563.59
2022-11-29T10:13:44.133Z,100555.88
2022-11-29T10:16:45.834Z,100554.22
2022-11-29T10:19:37.597Z,100555.47
2022-11-29T10:22:31.180Z,100562.78
2022-11-29T10:25:24.993Z,100559.09
2022-11-29T10:28:17.869Z,100558.66
2022-11-29T10:31:17.876Z,100559.91
2022-11-29T10:34:14.276Z,100561.56
2022-11-29T10:37:03.693Z,100559.16
2022-11-29T10:39:54.810Z,100561.94
2022-11-29T10:42:49.661Z,100558.25
2022-11-29T10:45:45.760Z,100554.56
2022-11-29T10:48:35.265Z,100557.50
2022-11-29T10:51:23.906Z,100552.19
2022-11-29T10:54:21.599Z,100551.34
2022-11-29T10:57:15.451Z,100564.44
2022-11-29T11:00:07.830Z,100554.41
2022-11-29T11:02:57.976Z,100566.25
2022-11-29T11:05:59.506Z,100563.41
2022-11-29T11:08:49.832Z,100556.88
2022-11-29T11:11:38.894Z,100568.19
2022-11-29T11:14:29.196Z,100563.31
2022-11-29T11:17:26.035Z,100566.16
2022-11-29T11:20:23.801Z,100567.34
2022-11-29T11:23:25.953Z,100561.13
2022-11-29T11:26:15.845Z,100571.41
2022-11-29T11:29:05.410Z,100568.56
2022-11-29T11:31:55.646Z,100569.78
2022-11-29T11:34:52.888Z,100572.22
2022-11-29T11:37:45.790Z,100575.91
2022-11-29T11:40:34.688Z,100576.28
2022-11-29T11:43:23.553Z,100576.28
2022-11-29T11:46:17.704Z,100576.38
2022-11-29T11:49:14.091Z,100575.56
2022-11-29T11:52:03.122Z,100571.25
2022-11-29T11:54:56.332Z,100578.56
2022-11-29T11:57:44.977Z,100578.78
2022-11-29T12:04:00.054Z,100583.56
2022-11-29T12:06:52.487Z,100577.56
2022-11-29T12:09:44.749Z,100575.91
2022-11-29T12:12:38.183Z,100577.94
2022-11-29T12:15:29.990Z,100583.28
2022-11-29T12:18:25.712Z,100584.47
2022-11-29T12:21:16.483Z,100590.25
2022-11-29T12:24:07.988Z,100585.31
2022-11-29T12:26:58.730Z,100591.91
2022-11-29T12:29:49.080Z,100589.63
2022-11-29T12:32:54.004Z,100584.13
2022-11-29T12:36:18.401Z,100579.59
2022-11-29T12:39:18.700Z,100594.34
2022-11-29T12:42:14.172Z,100596.63
2022-11-29T12:45:16.406Z,100596.63
2022-11-29T12:48:18.563Z,100600.13
2022-11-29T12:51:12.526Z,100602.34
2022-11-29T12:54:20.576Z,100602.97
2022-11-29T12:57:13.870Z,100602.97
2022-11-29T13:00:11.319Z,100606.47
2022-11-29T13:03:08.700Z,100608.31
2022-11-29T13:06:05.521Z,100617.31
2022-11-29T13:09:04.100Z,100611.59
2022-11-29T13:11:57.019Z,100610.34
2022-11-29T13:14:51.005Z,100615.91
2022-11-29T13:17:47.501Z,100624.94
2022-11-29T13:20:41.813Z,100616.94
2022-11-29T13:23:46.082Z,100621.53
2022-11-29T13:26:45.568Z,100622.28
2022-11-29T13:29:35.638Z,100624.66
2022-11-29T13:32:33.331Z,100623.91
2022-11-29T13:35:28.173Z,100629.63
2022-11-29T13:38:21.411Z,100626.34
2022-11-29T13:41:16.609Z,100633.31
2022-11-29T13:44:10.082Z,100629.25
2022-11-29T13:47:06.054Z,100634.97
2022-11-29T13:49:59.915Z,100629.63
2022-11-29T13:52:50.796Z,100629.63
2022-11-29T13:55:46.197Z,100637.81
2022-11-29T13:58:39.171Z,100633.31
2022-11-29T14:01:27.988Z,100648.47
2022-11-29T14:04:34.629Z,100646.81
2022-11-29T14:07:23.383Z,100644.00
2022-11-29T14:10:28.513Z,100647.69
2022-11-29T14:13:17.939Z,100647.69
2022-11-29T14:16:07.644Z,100640.66
2022-11-29T14:19:26.745Z,100639.28
2022-11-29T14:22:21.802Z,100643.16
2022-11-29T14:25:50.557Z,100643.72
2022-11-29T14:28:37.129Z,100651.72
2022-11-29T14:31:58.935Z,100647.38
2022-11-29T14:34:50.421Z,100648.38
2022-11-29T14:37:47.340Z,100646.81
2022-11-29T14:40:46.422Z,100646.38
2022-11-29T14:43:36.204Z,100655.00
2022-11-29T14:46:29.581Z,100649.69
2022-11-29T14:49:25.875Z,100655.38
2022-11-29T14:52:25.537Z,100657.03
2022-11-29T14:55:33.248Z,100661.16
2022-11-29T14:58:23.583Z,100665.03
2022-11-29T15:01:12.267Z,100665.31
2022-11-29T15:04:06.868Z,100661.25
2022-11-29T15:06:57.397Z,100668.00
2022-11-29T15:09:46.000Z,100669.00
2022-11-29T15:12:37.203Z,100675.63
2022-11-29T15:15:42.057Z,100668.91
2022-11-29T15:18:54.965Z,100680.03
2022-11-29T15:21:48.363Z,100677.91
2022-11-29T15:24:52.050Z,100685.44
2022-11-29T15:27:51.632Z,100695.09
2022-11-29T15:30:43.104Z,100694.09
2022-11-29T15:33:31.820Z,100697.13
2022-11-29T15:36:22.282Z,100700.44
2022-11-29T15:39:37.897Z,100697.78
2022-11-29T15:42:32.460Z,100697.78
2022-11-29T15:45:36.260Z,100700.44
2022-11-29T15:48:28.037Z,100708.63
2022-11-29T15:51:25.943Z,100704.88
2022-11-29T15:54:17.974Z,100712.75
2022-11-29T15:57:17.319Z,100712.13
2022-11-29T16:00:07.802Z,100723.16
2022-11-29T16:02:59.675Z,100718.94
2022-11-29T16:05:54.250Z,100720.97
2022-11-29T16:08:43.842Z,100723.97
2022-11-29T16:11:33.130Z,100726.22
2022-11-29T16:14:23.606Z,100728.19
2022-11-29T16:17:12.212Z,100726.22
2022-11-29T16:20:24.297Z,100721.84
2022-11-29T16:23:15.718Z,100723.63
2022-11-29T16:26:11.559Z,100725.84
2022-11-29T16:29:00.160Z,100732.81
2022-11-29T16:31:49.020Z,100734.47
2022-11-29T16:34:38.187Z,100737.69
2022-11-29T16:37:28.281Z,100740.97
2022-11-29T16:40:26.577Z,100745.78
2022-11-29T16:43:23.878Z,100752.59
2022-11-29T16:46:30.111Z,100742.56
2022-11-29T16:49:36.132Z,100757.81
2022-11-29T16:52:26.951Z,100755.34
2022-11-29T16:55:17.042Z,100757.44
2022-11-29T16:58:07.149Z,100763.97
2022-11-29T17:00:55.938Z,100759.47
2022-11-29T17:03:44.642Z,100758.63
2022-11-29T17:06:33.305Z,100764.34
2022-11-29T17:09:24.929Z,100761.94
2022-11-29T17:12:14.936Z,100765.19
2022-11-29T17:15:05.354Z,100765.81
2022-11-29T17:17:54.039Z,100756.97
2022-11-29T17:20:42.662Z,100767.75
2022-11-29T17:23:31.486Z,100771.97
2022-11-29T17:26:20.770Z,100770.06
2022-11-29T17:29:09.616Z,100772.53
2022-11-29T17:31:59.643Z,100773.16
2022-11-29T17:34:48.395Z,100767.03
2022-11-29T17:37:37.104Z,100777.69
2022-11-29T17:40:25.793Z,100777.69
2022-11-29T17:43:14.494Z,100786.69
2022-11-29T17:46:08.281Z,100788.34
2022-11-29T17:49:01.201Z,100787.16
2022-11-29T17:51:52.661Z,100799.31
2022-11-29T17:54:41.788Z,100801.34
2022-11-29T17:57:30.370Z,100797.84
2022-11-29T18:00:20.517Z,100802.00
2022-11-29T18:03:09.333Z,100805.28
2022-11-29T18:06:01.653Z,100806.94
2022-11-29T18:08:53.750Z,100809.63
2022-11-29T18:11:48.558Z,100800.63
2022-11-29T18:14:39.017Z,100810.09
2022-11-29T18:17:27.618Z,100803.28
2022-11-29T18:20:16.428Z,100811.75
2022-11-29T18:23:08.119Z,100806.22
2022-11-29T18:25:58.840Z,100809.81
2022-11-29T18:28:48.640Z,100808.16
2022-11-29T18:31:38.862Z,100804.84
2022-11-29T18:34:27.490Z,100814.06
2022-11-29T18:37:27.542Z,100817.91
2022-11-29T18:40:26.478Z,100814.88
2022-11-29T18:43:17.781Z,100814.47
2022-11-29T18:46:10.305Z,100813.38
2022-11-29T18:48:59.145Z,100817.88
2022-11-29T18:51:48.785Z,100816.94
2022-11-29T18:54:37.526Z,100810.19
2022-11-29T18:57:27.518Z,100818.91
2022-11-29T19:00:17.161Z,100815.22
2022-11-29T19:03:05.856Z,100813.25
2022-11-29T19:05:55.036Z,100820.81
2022-11-29T19:08:44.480Z,100826.88
2022-11-29T19:11:36.600Z,100825.88
2022-11-29T19:14:26.633Z,100819.53
2022-11-29T19:17:15.348Z,100831.78
2022-11-29T19:20:03.951Z,100829.84
2022-11-29T19:22:57.435Z,100825.88
2022-11-29T19:25:49.220Z,100828.56
2022-11-29T19:28:38.697Z,100833.72
2022-11-29T19:31:29.202Z,100836.47
2022-11-29T19:34:22.058Z,100845.88
2022-11-29T19:37:10.627Z,100834.91
2022-11-29T19:39:59.251Z,100829.03
2022-11-29T19:42:48.984Z,100830.78
2022-11-29T19:45:40.408Z,100835.75
2022-11-29T19:48:30.449Z,100828.38
2022-11-29T19:51:19.074Z,100842.03
2022-11-29T19:54:09.400Z,100838.41
2022-11-29T19:56:58.747Z,100845.03
2022-11-29T19:59:47.724Z,100849.56
2022-11-29T20:02:36.656Z,100846.25
2022-11-29T20:05:27.251Z,100844.41
2022-11-29T20:08:19.901Z,100853.88
2022-11-29T20:11:14.537Z,100849.19
2022-11-29T20:14:07.770Z,100857.00
2022-11-29T20:16:56.436Z,100850.84
2022-11-29T20:19:45.431Z,100857.72
2022-11-29T20:22:37.689Z,100859.69
2022-11-29T20:25:26.439Z,100867.31
2022-11-29T20:28:15.046Z,100865.28
2022-11-29T20:31:06.523Z,100869.31
2022-11-29T20:33:57.299Z,100877.78
2022-11-29T20:37:36.396Z,100868.41
2022-11-29T20:40:31.543Z,100868.41
2022-11-29T20:43:22.097Z,100871.34
2022-11-29T20:46:11.282Z,100868.22
2022-11-29T20:49:06.146Z,100866.56
2022-11-29T20:52:00.259Z,100871.50
2022-11-29T20:54:48.976Z,100879.91
2022-11-29T20:57:39.122Z,100873.38
2022-11-29T21:00:27.991Z,100866.38
2022-11-29T21:03:16.881Z,100870.06
2022-11-29T21:06:07.070Z,100879.44
2022-11-29T21:08:55.802Z,100870.06
2022-11-29T21:11:44.720Z,100872.75
2022-11-29T21:14:35.361Z,100878.63
2022-11-29T21:17:28.782Z,100876.50
2022-11-29T21:20:25.101Z,100880.19
2022-11-29T21:23:20.081Z,100879.09
2022-11-29T21:26:12.517Z,100879.25
2022-11-29T21:29:17.069Z,100880.47
2022-11-29T21:32:07.713Z,100882.47
2022-11-29T21:34:56.375Z,100888.28
2022-11-29T21:37:45.507Z,100885.34
2022-11-29T21:40:34.212Z,100884.25
2022-11-29T21:43:37.377Z,100892.91
2022-11-29T21:46:31.523Z,100891.59
2022-11-29T21:49:21.654Z,100889.84
2022-11-29T21:52:10.364Z,100884.97
2022-11-29T21:54:58.944Z,100893.63
2022-11-29T21:57:48.046Z,100897.31
2022-11-29T22:00:37.660Z,100901.00
2022-11-29T22:03:26.507Z,100897.31
2022-11-29T22:06:20.289Z,100895.09
2022-11-29T22:09:08.916Z,100893.06
2022-11-29T22:11:58.222Z,100889.03
2022-11-29T22:14:47.035Z,100889.84
2022-11-29T22:17:35.813Z,100899.06
2022-11-29T22:20:24.569Z,100894.38
2022-11-29T22:23:14.675Z,100893.53
2022-11-29T22:26:04.889Z,100890.22
2022-11-29T22:28:53.517Z,100902.72
2022-11-29T22:31:42.401Z,100894.44
2022-11-29T22:34:31.197Z,100893.44
2022-11-29T22:37:19.851Z,100894.91
2022-11-29T22:40:10.583Z,100888.09
2022-11-29T22:42:59.160Z,100901.28
2022-11-29T22:45:47.887Z,100891.06
2022-11-29T22:48:38.978Z,100892.72
2022-11-29T22:51:30.376Z,100894.28
2022-11-29T22:54:18.912Z,100890.13
2022-11-29T22:57:08.906Z,100894.44
2022-11-29T22:59:57.619Z,100892.78
2022-11-29T23:02:46.354Z,100895.28
2022-11-29T23:05:34.991Z,100900.81
2022-11-29T23:08:25.310Z,100900.81
2022-11-29T23:11:17.505Z,100902.84
2022-11-29T23:14:07.430Z,100905.50
2022-11-29T23:16:56.185Z,100906.50
2022-11-29T23:19:44.854Z,100904.84
2022-11-29T23:22:38.669Z,100911.38
2022-11-29T23:25:27.551Z,100918.00
2022-11-29T23:28:16.309Z,100910.72
2022-11-29T23:31:06.359Z,100910.84
2022-11-29T23:33:55.322Z,100910.72
2022-11-29T23:36:48.253Z,100903.53
2022-11-29T23:39:39.895Z,100915.06
2022-11-29T23:42:28.607Z,100899.88
2022-11-29T23:45:17.480Z,100906.22
2022-11-29T23:48:07.817Z,100909.25
2022-11-29T23:50:56.443Z,100916.25
2022-11-29T23:53:45.241Z,100908.25
2022-11-29T23:56:35.584Z,100911.97
2022-11-29T23:59:24.304Z,100915.13
